sensor_id;sensor_type;location;lat;lon;timestamp;P1;durP1;ratioP1;P2;durP2;ratioP2
36383;SDS011;22418;51.210;6.976;2024-03-06T00:02:28;38.23;;;17.67;;
36383;SDS011;22418;51.210;6.976;2024-03-06T00:04:59;35.50;;;17.90;;
36383;SDS011;22418;51.210;6.976;2024-03-06T00:07:30;40.40;;;17.93;;
36383;SDS011;22418;51.210;6.976;2024-03-06T00:10:00;30.40;;;16.50;;
36383;SDS011;22418;51.210;6.976;2024-03-06T00:12:31;35.20;;;17.77;;
36383;SDS011;22418;51.210;6.976;2024-03-06T00:15:01;31.40;;;16.87;;
36383;SDS011;22418;51.210;6.976;2024-03-06T00:20:03;31.90;;;17.23;;
36383;SDS011;22418;51.210;6.976;2024-03-06T00:25:05;32.77;;;17.03;;
36383;SDS011;22418;51.210;6.976;2024-03-06T00:27:36;31.58;;;16.77;;
36383;SDS011;22418;51.210;6.976;2024-03-06T00:30:07;36.30;;;17.53;;
36383;SDS011;22418;51.210;6.976;2024-03-06T00:32:38;35.28;;;19.08;;
36383;SDS011;22418;51.210;6.976;2024-03-06T00:35:08;34.07;;;17.60;;
36383;SDS011;22418;51.210;6.976;2024-03-06T00:37:39;35.33;;;17.70;;
36383;SDS011;22418;51.210;6.976;2024-03-06T00:40:09;33.83;;;17.33;;
36383;SDS011;22418;51.210;6.976;2024-03-06T00:42:41;35.65;;;18.85;;
36383;SDS011;22418;51.210;6.976;2024-03-06T00:45:11;35.93;;;17.70;;
36383;SDS011;22418;51.210;6.976;2024-03-06T00:47:42;33.43;;;18.50;;
36383;SDS011;22418;51.210;6.976;2024-03-06T00:50:12;34.07;;;17.57;;
36383;SDS011;22418;51.210;6.976;2024-03-06T00:52:43;31.73;;;17.50;;
36383;SDS011;22418;51.210;6.976;2024-03-06T00:55:14;34.30;;;18.87;;
36383;SDS011;22418;51.210;6.976;2024-03-06T00:57:44;36.97;;;18.07;;
36383;SDS011;22418;51.210;6.976;2024-03-06T01:00:15;34.20;;;17.83;;
36383;SDS011;22418;51.210;6.976;2024-03-06T01:02:46;37.42;;;17.60;;
36383;SDS011;22418;51.210;6.976;2024-03-06T01:05:17;34.30;;;18.10;;
36383;SDS011;22418;51.210;6.976;2024-03-06T01:07:48;38.77;;;18.63;;
36383;SDS011;22418;51.210;6.976;2024-03-06T01:10:18;37.23;;;17.27;;
36383;SDS011;22418;51.210;6.976;2024-03-06T01:12:49;34.00;;;18.13;;
36383;SDS011;22418;51.210;6.976;2024-03-06T01:15:19;35.07;;;17.80;;
36383;SDS011;22418;51.210;6.976;2024-03-06T01:17:52;32.60;;;17.23;;
36383;SDS011;22418;51.210;6.976;2024-03-06T01:20:23;33.15;;;17.50;;
36383;SDS011;22418;51.210;6.976;2024-03-06T01:22:54;42.17;;;18.08;;
36383;SDS011;22418;51.210;6.976;2024-03-06T01:25:25;34.87;;;18.83;;
36383;SDS011;22418;51.210;6.976;2024-03-06T01:27:55;32.20;;;17.27;;
36383;SDS011;22418;51.210;6.976;2024-03-06T01:30:26;36.27;;;17.40;;
36383;SDS011;22418;51.210;6.976;2024-03-06T01:32:56;32.83;;;17.60;;
36383;SDS011;22418;51.210;6.976;2024-03-06T01:35:27;34.13;;;18.60;;
36383;SDS011;22418;51.210;6.976;2024-03-06T01:37:58;32.17;;;17.27;;
36383;SDS011;22418;51.210;6.976;2024-03-06T01:40:28;32.40;;;15.83;;
36383;SDS011;22418;51.210;6.976;2024-03-06T01:42:59;31.55;;;17.35;;
36383;SDS011;22418;51.210;6.976;2024-03-06T01:45:31;34.58;;;17.55;;
36383;SDS011;22418;51.210;6.976;2024-03-06T01:48:02;31.58;;;17.02;;
36383;SDS011;22418;51.210;6.976;2024-03-06T01:50:33;33.10;;;17.00;;
36383;SDS011;22418;51.210;6.976;2024-03-06T01:53:04;32.42;;;17.40;;
36383;SDS011;22418;51.210;6.976;2024-03-06T01:55:35;35.15;;;18.20;;
36383;SDS011;22418;51.210;6.976;2024-03-06T01:58:06;31.52;;;17.23;;
36383;SDS011;22418;51.210;6.976;2024-03-06T02:03:08;35.07;;;18.30;;
36383;SDS011;22418;51.210;6.976;2024-03-06T02:05:38;32.95;;;17.60;;
36383;SDS011;22418;51.210;6.976;2024-03-06T02:08:10;34.17;;;17.67;;
36383;SDS011;22418;51.210;6.976;2024-03-06T02:10:41;33.83;;;18.17;;
36383;SDS011;22418;51.210;6.976;2024-03-06T02:13:13;32.65;;;17.77;;
36383;SDS011;22418;51.210;6.976;2024-03-06T02:15:45;27.70;;;16.33;;
36383;SDS011;22418;51.210;6.976;2024-03-06T02:18:15;29.25;;;16.85;;
36383;SDS011;22418;51.210;6.976;2024-03-06T02:20:46;30.77;;;17.17;;
36383;SDS011;22418;51.210;6.976;2024-03-06T02:23:17;31.13;;;16.95;;
36383;SDS011;22418;51.210;6.976;2024-03-06T02:25:50;29.15;;;16.05;;
36383;SDS011;22418;51.210;6.976;2024-03-06T02:28:21;33.63;;;17.10;;
36383;SDS011;22418;51.210;6.976;2024-03-06T02:30:52;28.80;;;15.87;;
36383;SDS011;22418;51.210;6.976;2024-03-06T02:33:22;28.27;;;16.63;;
36383;SDS011;22418;51.210;6.976;2024-03-06T02:35:53;31.43;;;16.87;;
36383;SDS011;22418;51.210;6.976;2024-03-06T02:38:23;30.40;;;15.97;;
36383;SDS011;22418;51.210;6.976;2024-03-06T02:40:54;29.80;;;16.80;;
36383;SDS011;22418;51.210;6.976;2024-03-06T02:43:25;28.93;;;15.70;;
36383;SDS011;22418;51.210;6.976;2024-03-06T02:45:55;31.97;;;16.57;;
36383;SDS011;22418;51.210;6.976;2024-03-06T02:48:26;30.87;;;17.00;;
36383;SDS011;22418;51.210;6.976;2024-03-06T02:50:57;29.70;;;16.63;;
36383;SDS011;22418;51.210;6.976;2024-03-06T02:53:28;28.08;;;16.25;;
36383;SDS011;22418;51.210;6.976;2024-03-06T02:55:58;27.60;;;15.50;;
36383;SDS011;22418;51.210;6.976;2024-03-06T02:58:29;28.07;;;15.90;;
36383;SDS011;22418;51.210;6.976;2024-03-06T03:01:01;28.45;;;15.02;;
36383;SDS011;22418;51.210;6.976;2024-03-06T03:03:32;25.93;;;16.10;;
36383;SDS011;22418;51.210;6.976;2024-03-06T03:06:02;26.13;;;15.47;;
36383;SDS011;22418;51.210;6.976;2024-03-06T03:08:34;26.88;;;15.00;;
36383;SDS011;22418;51.210;6.976;2024-03-06T03:11:06;26.52;;;15.73;;
36383;SDS011;22418;51.210;6.976;2024-03-06T03:13:38;26.90;;;15.90;;
36383;SDS011;22418;51.210;6.976;2024-03-06T03:16:15;25.07;;;14.53;;
36383;SDS011;22418;51.210;6.976;2024-03-06T03:18:50;31.17;;;17.42;;
36383;SDS011;22418;51.210;6.976;2024-03-06T03:21:20;26.50;;;15.47;;
36383;SDS011;22418;51.210;6.976;2024-03-06T03:26:22;24.83;;;14.20;;
36383;SDS011;22418;51.210;6.976;2024-03-06T03:28:53;28.97;;;15.87;;
36383;SDS011;22418;51.210;6.976;2024-03-06T03:31:25;26.52;;;15.20;;
36383;SDS011;22418;51.210;6.976;2024-03-06T03:33:56;28.73;;;15.33;;
36383;SDS011;22418;51.210;6.976;2024-03-06T03:36:27;25.60;;;15.30;;
36383;SDS011;22418;51.210;6.976;2024-03-06T03:38:57;25.47;;;14.97;;
36383;SDS011;22418;51.210;6.976;2024-03-06T03:41:28;27.93;;;16.43;;
36383;SDS011;22418;51.210;6.976;2024-03-06T03:44:00;26.80;;;15.70;;
36383;SDS011;22418;51.210;6.976;2024-03-06T03:46:31;28.10;;;15.97;;
36383;SDS011;22418;51.210;6.976;2024-03-06T03:49:02;28.03;;;15.50;;
36383;SDS011;22418;51.210;6.976;2024-03-06T03:51:32;26.73;;;15.63;;
36383;SDS011;22418;51.210;6.976;2024-03-06T03:54:03;28.70;;;16.10;;
36383;SDS011;22418;51.210;6.976;2024-03-06T03:56:34;33.80;;;17.67;;
36383;SDS011;22418;51.210;6.976;2024-03-06T03:59:05;28.67;;;15.77;;
36383;SDS011;22418;51.210;6.976;2024-03-06T04:01:35;24.33;;;14.40;;
36383;SDS011;22418;51.210;6.976;2024-03-06T04:04:06;28.40;;;15.57;;
36383;SDS011;22418;51.210;6.976;2024-03-06T04:06:38;28.73;;;15.52;;
36383;SDS011;22418;51.210;6.976;2024-03-06T04:09:08;29.97;;;15.53;;
36383;SDS011;22418;51.210;6.976;2024-03-06T04:11:43;27.77;;;15.85;;
36383;SDS011;22418;51.210;6.976;2024-03-06T04:14:17;28.88;;;15.52;;
36383;SDS011;22418;51.210;6.976;2024-03-06T04:16:49;28.52;;;15.82;;
36383;SDS011;22418;51.210;6.976;2024-03-06T04:19:19;29.60;;;15.63;;
36383;SDS011;22418;51.210;6.976;2024-03-06T04:21:50;27.10;;;15.43;;
36383;SDS011;22418;51.210;6.976;2024-03-06T04:24:20;26.57;;;15.03;;
36383;SDS011;22418;51.210;6.976;2024-03-06T04:26:51;27.37;;;15.90;;
36383;SDS011;22418;51.210;6.976;2024-03-06T04:29:21;33.77;;;17.17;;
36383;SDS011;22418;51.210;6.976;2024-03-06T04:31:52;29.80;;;16.13;;
36383;SDS011;22418;51.210;6.976;2024-03-06T04:34:22;31.37;;;16.70;;
36383;SDS011;22418;51.210;6.976;2024-03-06T04:36:53;27.57;;;15.97;;
36383;SDS011;22418;51.210;6.976;2024-03-06T04:39:24;26.33;;;15.37;;
36383;SDS011;22418;51.210;6.976;2024-03-06T04:41:54;32.63;;;16.97;;
36383;SDS011;22418;51.210;6.976;2024-03-06T04:44:25;30.17;;;15.83;;
36383;SDS011;22418;51.210;6.976;2024-03-06T04:46:55;26.73;;;15.50;;
36383;SDS011;22418;51.210;6.976;2024-03-06T04:49:26;30.23;;;15.40;;
36383;SDS011;22418;51.210;6.976;2024-03-06T04:51:57;29.27;;;15.83;;
36383;SDS011;22418;51.210;6.976;2024-03-06T04:54:27;33.57;;;16.67;;
36383;SDS011;22418;51.210;6.976;2024-03-06T04:56:58;33.63;;;18.50;;
36383;SDS011;22418;51.210;6.976;2024-03-06T04:59:28;33.90;;;18.37;;
36383;SDS011;22418;51.210;6.976;2024-03-06T05:01:59;39.53;;;17.57;;
36383;SDS011;22418;51.210;6.976;2024-03-06T05:04:29;36.20;;;19.70;;
36383;SDS011;22418;51.210;6.976;2024-03-06T05:07:00;33.20;;;18.50;;
36383;SDS011;22418;51.210;6.976;2024-03-06T05:09:30;32.83;;;17.97;;
36383;SDS011;22418;51.210;6.976;2024-03-06T05:12:01;50.37;;;23.47;;
36383;SDS011;22418;51.210;6.976;2024-03-06T05:14:32;52.80;;;25.63;;
36383;SDS011;22418;51.210;6.976;2024-03-06T05:17:02;60.33;;;28.53;;
36383;SDS011;22418;51.210;6.976;2024-03-06T05:19:33;41.47;;;19.97;;
36383;SDS011;22418;51.210;6.976;2024-03-06T05:24:35;36.93;;;19.83;;
36383;SDS011;22418;51.210;6.976;2024-03-06T05:27:06;44.10;;;21.47;;
36383;SDS011;22418;51.210;6.976;2024-03-06T05:29:36;41.10;;;20.13;;
36383;SDS011;22418;51.210;6.976;2024-03-06T05:32:07;35.40;;;17.97;;
36383;SDS011;22418;51.210;6.976;2024-03-06T05:34:37;40.37;;;21.07;;
36383;SDS011;22418;51.210;6.976;2024-03-06T05:37:08;34.13;;;17.70;;
36383;SDS011;22418;51.210;6.976;2024-03-06T05:39:38;33.43;;;17.87;;
36383;SDS011;22418;51.210;6.976;2024-03-06T05:42:09;34.07;;;17.23;;
36383;SDS011;22418;51.210;6.976;2024-03-06T05:44:40;37.23;;;19.27;;
36383;SDS011;22418;51.210;6.976;2024-03-06T05:47:10;33.47;;;18.80;;
36383;SDS011;22418;51.210;6.976;2024-03-06T05:49:41;38.20;;;20.23;;
36383;SDS011;22418;51.210;6.976;2024-03-06T05:52:11;35.87;;;17.87;;
36383;SDS011;22418;51.210;6.976;2024-03-06T05:54:42;31.33;;;17.53;;
36383;SDS011;22418;51.210;6.976;2024-03-06T05:57:12;36.17;;;18.00;;
36383;SDS011;22418;51.210;6.976;2024-03-06T05:59:43;35.67;;;18.77;;
36383;SDS011;22418;51.210;6.976;2024-03-06T06:02:14;40.08;;;19.75;;
36383;SDS011;22418;51.210;6.976;2024-03-06T06:04:46;36.97;;;19.35;;
36383;SDS011;22418;51.210;6.976;2024-03-06T06:07:17;40.83;;;19.73;;
36383;SDS011;22418;51.210;6.976;2024-03-06T06:09:48;40.83;;;19.00;;
36383;SDS011;22418;51.210;6.976;2024-03-06T06:12:18;36.13;;;19.07;;
36383;SDS011;22418;51.210;6.976;2024-03-06T06:14:49;36.37;;;18.40;;
36383;SDS011;22418;51.210;6.976;2024-03-06T06:17:19;33.60;;;17.77;;
36383;SDS011;22418;51.210;6.976;2024-03-06T06:19:50;40.63;;;18.45;;
36383;SDS011;22418;51.210;6.976;2024-03-06T06:22:21;37.80;;;19.63;;
36383;SDS011;22418;51.210;6.976;2024-03-06T06:24:51;44.33;;;20.17;;
36383;SDS011;22418;51.210;6.976;2024-03-06T06:27:22;43.50;;;20.63;;
36383;SDS011;22418;51.210;6.976;2024-03-06T06:29:52;41.87;;;19.33;;
36383;SDS011;22418;51.210;6.976;2024-03-06T06:32:25;38.88;;;19.27;;
36383;SDS011;22418;51.210;6.976;2024-03-06T06:34:55;42.17;;;21.83;;
36383;SDS011;22418;51.210;6.976;2024-03-06T06:37:26;45.80;;;19.00;;
36383;SDS011;22418;51.210;6.976;2024-03-06T06:39:57;38.03;;;19.30;;
36383;SDS011;22418;51.210;6.976;2024-03-06T06:42:29;38.70;;;18.05;;
36383;SDS011;22418;51.210;6.976;2024-03-06T06:44:59;36.13;;;18.70;;
36383;SDS011;22418;51.210;6.976;2024-03-06T06:47:30;40.33;;;21.08;;
36383;SDS011;22418;51.210;6.976;2024-03-06T06:50:01;50.63;;;24.63;;
36383;SDS011;22418;51.210;6.976;2024-03-06T06:52:35;61.13;;;28.02;;
36383;SDS011;22418;51.210;6.976;2024-03-06T06:55:06;51.13;;;24.80;;
36383;SDS011;22418;51.210;6.976;2024-03-06T07:00:08;49.20;;;22.97;;
36383;SDS011;22418;51.210;6.976;2024-03-06T07:02:42;53.65;;;23.65;;
36383;SDS011;22418;51.210;6.976;2024-03-06T07:05:13;44.92;;;22.08;;
36383;SDS011;22418;51.210;6.976;2024-03-06T07:10:15;45.37;;;22.57;;
36383;SDS011;22418;51.210;6.976;2024-03-06T07:12:46;41.20;;;20.63;;
36383;SDS011;22418;51.210;6.976;2024-03-06T07:15:16;48.40;;;22.00;;
36383;SDS011;22418;51.210;6.976;2024-03-06T07:17:47;45.37;;;20.40;;
36383;SDS011;22418;51.210;6.976;2024-03-06T07:20:18;42.13;;;21.63;;
36383;SDS011;22418;51.210;6.976;2024-03-06T07:22:49;42.33;;;19.43;;
36383;SDS011;22418;51.210;6.976;2024-03-06T07:25:20;46.85;;;21.38;;
36383;SDS011;22418;51.210;6.976;2024-03-06T07:27:51;40.00;;;20.40;;
36383;SDS011;22418;51.210;6.976;2024-03-06T07:30:22;39.08;;;19.67;;
36383;SDS011;22418;51.210;6.976;2024-03-06T07:32:53;46.00;;;20.90;;
36383;SDS011;22418;51.210;6.976;2024-03-06T07:35:23;47.00;;;20.57;;
36383;SDS011;22418;51.210;6.976;2024-03-06T07:37:54;41.07;;;21.33;;
36383;SDS011;22418;51.210;6.976;2024-03-06T07:40:25;41.00;;;20.60;;
36383;SDS011;22418;51.210;6.976;2024-03-06T07:42:55;46.37;;;20.63;;
36383;SDS011;22418;51.210;6.976;2024-03-06T07:45:26;46.33;;;21.63;;
36383;SDS011;22418;51.210;6.976;2024-03-06T07:47:57;51.95;;;23.75;;
36383;SDS011;22418;51.210;6.976;2024-03-06T07:50:27;65.50;;;26.67;;
36383;SDS011;22418;51.210;6.976;2024-03-06T07:52:58;69.73;;;28.90;;
36383;SDS011;22418;51.210;6.976;2024-03-06T07:55:29;56.30;;;27.27;;
36383;SDS011;22418;51.210;6.976;2024-03-06T07:58:00;54.20;;;24.75;;
36383;SDS011;22418;51.210;6.976;2024-03-06T08:00:31;75.87;;;35.07;;
36383;SDS011;22418;51.210;6.976;2024-03-06T08:03:01;89.73;;;37.63;;
36383;SDS011;22418;51.210;6.976;2024-03-06T08:05:32;85.57;;;37.13;;
36383;SDS011;22418;51.210;6.976;2024-03-06T08:08:03;86.40;;;36.15;;
36383;SDS011;22418;51.210;6.976;2024-03-06T08:10:35;79.80;;;36.38;;
36383;SDS011;22418;51.210;6.976;2024-03-06T08:13:05;74.73;;;33.50;;
36383;SDS011;22418;51.210;6.976;2024-03-06T08:15:36;68.40;;;32.70;;
36383;SDS011;22418;51.210;6.976;2024-03-06T08:18:06;76.82;;;34.90;;
36383;SDS011;22418;51.210;6.976;2024-03-06T08:20:37;78.03;;;35.83;;
36383;SDS011;22418;51.210;6.976;2024-03-06T08:23:07;79.37;;;35.30;;
36383;SDS011;22418;51.210;6.976;2024-03-06T08:25:40;82.38;;;36.35;;
36383;SDS011;22418;51.210;6.976;2024-03-06T08:28:10;79.27;;;37.20;;
36383;SDS011;22418;51.210;6.976;2024-03-06T08:30:43;74.73;;;36.40;;
36383;SDS011;22418;51.210;6.976;2024-03-06T08:33:14;78.72;;;36.78;;
36383;SDS011;22418;51.210;6.976;2024-03-06T08:35:45;81.15;;;38.85;;
36383;SDS011;22418;51.210;6.976;2024-03-06T08:38:18;82.27;;;39.63;;
36383;SDS011;22418;51.210;6.976;2024-03-06T08:40:50;83.47;;;37.53;;
36383;SDS011;22418;51.210;6.976;2024-03-06T08:43:20;79.43;;;36.00;;
36383;SDS011;22418;51.210;6.976;2024-03-06T08:45:51;81.40;;;37.63;;
36383;SDS011;22418;51.210;6.976;2024-03-06T08:48:21;88.07;;;39.43;;
36383;SDS011;22418;51.210;6.976;2024-03-06T08:50:52;83.53;;;38.57;;
36383;SDS011;22418;51.210;6.976;2024-03-06T08:53:23;87.60;;;39.07;;
36383;SDS011;22418;51.210;6.976;2024-03-06T08:55:53;83.43;;;38.00;;
36383;SDS011;22418;51.210;6.976;2024-03-06T08:58:24;84.33;;;38.00;;
36383;SDS011;22418;51.210;6.976;2024-03-06T09:00:54;83.93;;;39.60;;
36383;SDS011;22418;51.210;6.976;2024-03-06T09:03:25;87.97;;;39.20;;
36383;SDS011;22418;51.210;6.976;2024-03-06T09:05:55;91.93;;;39.43;;
36383;SDS011;22418;51.210;6.976;2024-03-06T09:08:26;84.20;;;38.80;;
36383;SDS011;22418;51.210;6.976;2024-03-06T09:10:56;83.53;;;39.43;;
36383;SDS011;22418;51.210;6.976;2024-03-06T09:13:28;87.80;;;40.33;;
36383;SDS011;22418;51.210;6.976;2024-03-06T09:15:59;82.60;;;38.40;;
36383;SDS011;22418;51.210;6.976;2024-03-06T09:18:30;79.83;;;36.77;;
36383;SDS011;22418;51.210;6.976;2024-03-06T09:21:00;79.27;;;36.20;;
36383;SDS011;22418;51.210;6.976;2024-03-06T09:23:32;74.65;;;35.65;;
36383;SDS011;22418;51.210;6.976;2024-03-06T09:26:03;69.88;;;35.03;;
36383;SDS011;22418;51.210;6.976;2024-03-06T09:28:33;68.40;;;34.33;;
36383;SDS011;22418;51.210;6.976;2024-03-06T09:31:04;67.68;;;32.15;;
36383;SDS011;22418;51.210;6.976;2024-03-06T09:33:35;66.00;;;32.50;;
36383;SDS011;22418;51.210;6.976;2024-03-06T09:36:05;67.57;;;34.10;;
36383;SDS011;22418;51.210;6.976;2024-03-06T09:38:36;69.22;;;33.22;;
36383;SDS011;22418;51.210;6.976;2024-03-06T09:41:09;65.57;;;32.13;;
36383;SDS011;22418;51.210;6.976;2024-03-06T09:43:40;66.57;;;31.83;;
36383;SDS011;22418;51.210;6.976;2024-03-06T09:46:14;68.47;;;32.72;;
36383;SDS011;22418;51.210;6.976;2024-03-06T09:51:16;62.65;;;31.70;;
36383;SDS011;22418;51.210;6.976;2024-03-06T09:53:47;56.93;;;28.67;;
36383;SDS011;22418;51.210;6.976;2024-03-06T09:56:21;53.35;;;28.85;;
36383;SDS011;22418;51.210;6.976;2024-03-06T09:58:52;58.30;;;29.77;;
36383;SDS011;22418;51.210;6.976;2024-03-06T10:01:23;58.97;;;31.00;;
36383;SDS011;22418;51.210;6.976;2024-03-06T10:03:57;56.92;;;29.50;;
36383;SDS011;22418;51.210;6.976;2024-03-06T10:06:28;61.00;;;31.63;;
36383;SDS011;22418;51.210;6.976;2024-03-06T10:09:04;57.92;;;30.00;;
36383;SDS011;22418;51.210;6.976;2024-03-06T10:11:39;61.40;;;30.60;;
36383;SDS011;22418;51.210;6.976;2024-03-06T10:14:10;59.58;;;29.90;;
36383;SDS011;22418;51.210;6.976;2024-03-06T10:19:29;57.15;;;29.25;;
36383;SDS011;22418;51.210;6.976;2024-03-06T10:22:00;64.78;;;30.10;;
36383;SDS011;22418;51.210;6.976;2024-03-06T10:24:30;58.20;;;29.23;;
36383;SDS011;22418;51.210;6.976;2024-03-06T10:27:01;58.23;;;29.53;;
36383;SDS011;22418;51.210;6.976;2024-03-06T10:29:31;57.73;;;29.57;;
36383;SDS011;22418;51.210;6.976;2024-03-06T10:32:02;61.53;;;29.53;;
36383;SDS011;22418;51.210;6.976;2024-03-06T10:34:33;57.40;;;29.60;;
36383;SDS011;22418;51.210;6.976;2024-03-06T10:37:03;56.33;;;30.07;;
36383;SDS011;22418;51.210;6.976;2024-03-06T10:39:34;58.93;;;31.07;;
36383;SDS011;22418;51.210;6.976;2024-03-06T10:42:08;61.38;;;31.63;;
36383;SDS011;22418;51.210;6.976;2024-03-06T10:44:44;60.30;;;31.00;;
36383;SDS011;22418;51.210;6.976;2024-03-06T10:47:22;56.58;;;28.30;;
36383;SDS011;22418;51.210;6.976;2024-03-06T10:49:57;60.38;;;29.42;;
36383;SDS011;22418;51.210;6.976;2024-03-06T10:52:30;55.28;;;29.38;;
36383;SDS011;22418;51.210;6.976;2024-03-06T10:55:03;52.53;;;28.20;;
